Time;durP1;ratioP1;P1;durP2;ratioP2;P2;SDS_P1;SDS_P2;PMS_P1;PMS_P2;Temp;Humidity;BMP_temperature;BMP_pressure;BME280_temperature;BME280_humidity;BME280_pressure;Samples;Min_cycle;Max_cycle;Signal;HPM_P1;HPM_P2
2022/08/23 00:01:38;;;;;;;6.88;2.80;;;20.50;91.30;;;;;;5052750;28;20041;-70
2022/08/23 00:04:11;;;;;;;6.18;2.97;;;20.90;91.60;;;;;;5053027;28;20021;-70
2022/08/23 00:06:37;;;;;;;;;;;20.40;91.50;;;;;;5042101;28;20766;-70
2022/08/23 00:09:04;;;;;;;5.28;2.92;;;20.30;91.80;;;;;;5051738;28;19909;-71
2022/08/23 00:11:38;;;;;;;6.85;3.03;;;20.40;91.50;;;;;;5054979;28;20021;-69
2022/08/23 00:14:15;;;;;;;7.78;3.05;;;20.30;91.00;;;;;;5073094;28;20552;-70
2022/08/23 00:16:41;;;;;;;4.78;2.75;;;20.40;92.10;;;;;;5071640;28;20103;-70
2022/08/23 00:19:09;;;;;;;5.00;3.38;;;20.20;91.70;;;;;;5065547;28;20458;-69
2022/08/23 00:21:37;;;;;;;7.93;3.28;;;20.20;92.00;;;;;;5068446;28;20043;-70
2022/08/23 00:24:05;;;;;;;5.60;4.05;;;20.20;92.10;;;;;;5072420;28;20120;-69
2022/08/23 00:27:03;;;;;;;9.20;3.78;;;20.20;92.10;;;;;;5054874;28;20522;-70
2022/08/23 00:29:41;;;;;;;6.57;4.00;;;20.20;91.90;;;;;;5052540;28;20477;-69
2022/08/23 00:32:09;;;;;;;8.30;3.70;;;20.20;91.80;;;;;;5052797;28;20021;-70
2022/08/23 00:34:36;;;;;;;8.25;3.88;;;20.20;92.40;;;;;;5052689;28;20108;-70
2022/08/23 00:37:02;;;;;;;5.53;3.13;;;20.20;92.30;;;;;;5052465;28;20099;-70
2022/08/23 00:39:28;;;;;;;7.07;3.53;;;20.10;92.30;;;;;;5051964;28;20087;-69
2022/08/23 00:47:38;;;;;;;5.68;3.65;;;20.10;92.40;;;;;;5052302;28;20037;-70
2022/08/23 00:47:40;;;;;;;6.68;3.95;;;20.00;92.70;;;;;;5052676;28;20036;-69
2022/08/23 00:50:21;;;;;;;5.53;3.70;;;19.90;92.80;;;;;;5051766;28;20423;-69
2022/08/23 00:53:00;;;;;;;5.35;3.80;;;20.00;92.30;;;;;;5052563;28;20036;-70
2022/08/23 00:55:27;;;;;;;9.73;3.88;;;19.90;92.40;;;;;;5050749;28;20073;-69
2022/08/23 00:57:53;;;;;;;5.75;3.60;;;19.90;92.90;;;;;;5052426;28;20103;-70
2022/08/23 01:00:19;;;;;;;6.70;3.47;;;19.90;92.90;;;;;;5050960;28;20041;-70
2022/08/23 01:02:49;;;;;;;8.35;3.70;;;19.70;92.90;;;;;;5050015;28;20104;-70
2022/08/23 01:05:15;;;;;;;6.95;4.40;;;19.80;93.30;;;;;;5051719;28;20032;-70
2022/08/23 01:07:58;;;;;;;8.13;4.53;;;19.70;93.20;;;;;;5051716;28;20017;-70
2022/08/23 01:10:29;;;;;;;6.22;4.07;;;19.60;93.80;;;;;;5051728;28;20033;-69
2022/08/23 01:13:05;;;;;;;6.55;3.53;;;19.60;93.90;;;;;;5066375;28;20101;-69
2022/08/23 01:15:54;;;;;;;7.38;4.57;;;19.50;94.10;;;;;;5071435;28;20481;-70
2022/08/23 01:18:23;;;;;;;6.43;3.70;;;19.40;94.30;;;;;;5068381;28;21514;-70
2022/08/23 01:21:12;;;;;;;4.22;3.83;;;19.30;94.10;;;;;;5060614;28;20053;-70
2022/08/23 01:23:56;;;;;;;7.40;4.32;;;19.40;93.80;;;;;;5069460;28;20020;-70
2022/08/23 01:26:23;;;;;;;8.50;4.43;;;19.40;94.50;;;;;;5071489;28;20099;-70
2022/08/23 01:28:51;;;;;;;6.55;4.03;;;19.10;94.30;;;;;;5071743;28;20009;-70
2022/08/23 01:31:17;;;;;;;6.93;4.40;;;19.20;94.40;;;;;;5063959;28;20025;-70
2022/08/23 01:33:47;;;;;;;6.68;4.40;;;19.10;94.50;;;;;;5051464;28;20040;-70
2022/08/23 01:36:15;;;;;;;9.40;3.97;;;19.10;94.70;;;;;;5051258;28;20457;-70
2022/08/23 01:38:41;;;;;;;5.50;4.07;;;19.10;94.80;;;;;;5051251;28;20128;-69
2022/08/23 01:41:06;;;;;;;7.13;4.10;;;18.80;94.60;;;;;;5051226;28;20517;-70
2022/08/23 01:43:33;;;;;;;7.88;4.70;;;19.00;94.80;;;;;;5051036;28;20025;-69
2022/08/23 01:46:19;;;;;;;7.57;4.53;;;19.70;95.20;;;;;;5051227;28;20096;-69
2022/08/23 01:48:46;;;;;;;6.35;3.50;;;18.90;95.40;;;;;;5051196;28;20087;-69
2022/08/23 01:51:15;;;;;;;6.70;4.55;;;18.80;95.30;;;;;;5050324;28;20025;-69
2022/08/23 01:53:41;;;;;;;4.68;3.65;;;18.80;95.30;;;;;;5051214;28;20115;-70
2022/08/23 01:56:07;;;;;;;6.65;4.45;;;18.80;95.40;;;;;;5051060;28;20021;-69
2022/08/23 01:58:33;;;;;;;9.27;4.43;;;18.70;95.30;;;;;;5050831;28;20056;-69
2022/08/23 02:00:59;;;;;;;5.75;4.28;;;18.70;95.60;;;;;;5050172;28;20052;-69
2022/08/23 02:03:25;;;;;;;6.63;4.60;;;18.60;95.60;;;;;;5050671;28;20021;-70
2022/08/23 02:05:50;;;;;;;5.57;4.18;;;18.50;95.70;;;;;;5050756;28;20025;-71
2022/08/23 02:11:10;;;;;;;7.75;4.13;;;18.50;95.70;;;;;;5051404;28;20036;-70
2022/08/23 02:13:36;;;;;;;7.75;4.35;;;18.50;95.80;;;;;;5057002;28;20020;-69
2022/08/23 02:16:02;;;;;;;7.45;5.28;;;19.20;96.40;;;;;;5070786;28;20052;-70
2022/08/23 02:18:29;;;;;;;5.13;4.30;;;18.50;96.30;;;;;;5068157;28;20059;-70
2022/08/23 02:20:54;;;;;;;6.68;4.82;;;19.00;96.60;;;;;;5068921;28;20081;-71
2022/08/23 02:23:21;;;;;;;10.63;4.78;;;18.50;96.40;;;;;;5070177;28;20024;-69
2022/08/23 02:25:49;;;;;;;5.45;4.93;;;18.30;96.60;;;;;;5070666;28;20347;-70
2022/08/23 02:28:14;;;;;;;9.07;4.88;;;18.40;96.60;;;;;;5069814;28;20058;-70
2022/08/23 02:30:40;;;;;;;7.72;4.50;;;18.40;96.60;;;;;;5060048;28;20114;-70
2022/08/23 02:33:05;;;;;;;8.60;4.57;;;18.40;96.70;;;;;;5050311;28;20036;-70
2022/08/23 02:35:32;;;;;;;5.35;4.28;;;18.40;96.60;;;;;;5049846;28;20051;-70
2022/08/23 02:38:02;;;;;;;6.65;4.85;;;18.70;96.80;;;;;;5049198;28;20021;-70
2022/08/23 02:40:28;;;;;;;7.53;5.18;;;17.90;96.80;;;;;;5049750;28;20097;-70
2022/08/23 02:42:53;;;;;;;6.10;5.22;;;18.40;96.90;;;;;;5050436;28;20056;-70
2022/08/23 02:45:20;;;;;;;8.05;5.20;;;18.20;96.90;;;;;;5049818;28;20024;-69
2022/08/23 02:47:45;;;;;;;8.20;5.35;;;18.20;97.00;;;;;;5050310;28;20025;-70
2022/08/23 02:50:11;;;;;;;8.18;5.10;;;18.30;97.10;;;;;;5049062;28;20024;-69
2022/08/23 02:52:37;;;;;;;8.43;5.32;;;18.20;97.40;;;;;;5050285;28;20017;-69
2022/08/23 02:55:03;;;;;;;9.18;5.90;;;18.20;97.20;;;;;;5048327;28;20496;-70
2022/08/23 02:57:28;;;;;;;8.75;6.63;;;18.20;97.20;;;;;;5049475;28;20052;-70
2022/08/23 02:59:54;;;;;;;5.53;4.80;;;18.30;97.30;;;;;;5050021;28;20049;-70
2022/08/23 03:02:20;;;;;;;8.68;5.82;;;18.30;97.20;;;;;;5049481;28;20094;-70
2022/08/23 03:04:45;;;;;;;11.95;5.28;;;18.10;97.10;;;;;;5049701;28;20412;-70
2022/08/23 03:07:11;;;;;;;9.02;5.80;;;18.40;97.20;;;;;;5049427;28;20043;-70
2022/08/23 03:09:37;;;;;;;6.50;5.93;;;18.30;97.20;;;;;;5049672;28;20108;-70
2022/08/23 03:12:03;;;;;;;7.25;6.03;;;18.40;97.30;;;;;;5056960;28;20058;-70
2022/08/23 03:14:28;;;;;;;7.07;5.53;;;18.20;97.00;;;;;;5069902;28;20381;-70
2022/08/23 03:16:54;;;;;;;8.88;6.45;;;18.20;97.20;;;;;;5069652;28;20036;-69
2022/08/23 03:19:20;;;;;;;6.32;5.65;;;18.20;97.40;;;;;;5068940;28;20021;-69
2022/08/23 03:21:46;;;;;;;9.40;5.97;;;18.30;97.40;;;;;;5069685;28;20044;-70
2022/08/23 03:24:12;;;;;;;7.63;5.95;;;19.60;97.80;;;;;;5069095;28;20028;-70
2022/08/23 03:26:42;;;;;;;8.27;6.18;;;18.20;97.50;;;;;;5069627;28;20127;-69
2022/08/23 03:29:08;;;;;;;7.32;5.90;;;18.00;97.80;;;;;;5069729;28;20381;-70
2022/08/23 03:31:33;;;;;;;6.55;5.95;;;18.10;97.50;;;;;;5069458;28;20029;-69
2022/08/23 03:33:59;;;;;;;8.23;7.40;;;18.10;97.60;;;;;;5069085;28;20039;-70
2022/08/23 03:36:25;;;;;;;9.52;6.88;;;18.00;97.60;;;;;;5060309;28;20036;-69
2022/08/23 03:38:51;;;;;;;7.18;6.45;;;18.10;97.70;;;;;;5067516;28;20074;-70
2022/08/23 03:41:17;;;;;;;7.13;6.43;;;18.00;97.80;;;;;;5069308;28;20082;-70
2022/08/23 03:43:42;;;;;;;6.97;5.88;;;18.00;97.80;;;;;;5069493;28;20029;-70
2022/08/23 03:46:21;;;;;;;7.22;6.25;;;17.90;97.90;;;;;;5069636;28;20074;-70
2022/08/23 03:48:49;;;;;;;8.10;6.45;;;17.90;97.90;;;;;;5069117;28;20385;-70
2022/08/23 03:51:15;;;;;;;9.88;6.53;;;18.10;98.00;;;;;;5068027;28;20529;-70
2022/08/23 03:53:40;;;;;;;7.60;6.90;;;17.80;98.00;;;;;;5069417;28;20355;-69
2022/08/23 03:56:06;;;;;;;8.30;6.63;;;17.90;98.10;;;;;;5041451;28;20051;-70
2022/08/23 03:58:31;;;;;;;9.25;6.35;;;17.80;98.10;;;;;;5069192;28;20036;-69
2022/08/23 04:00:57;;;;;;;6.30;5.68;;;17.80;98.30;;;;;;5069263;28;20048;-69
2022/08/23 04:03:22;;;;;;;8.98;5.88;;;17.70;98.40;;;;;;5068617;28;20029;-70
2022/08/23 04:05:48;;;;;;;6.72;5.85;;;17.70;98.50;;;;;;5067448;28;20394;-70
2022/08/23 04:08:13;;;;;;;7.00;6.32;;;17.70;98.60;;;;;;5056372;28;20394;-69
2022/08/23 04:10:39;;;;;;;6.82;6.05;;;17.60;98.70;;;;;;5053154;28;20115;-70
2022/08/23 04:13:07;;;;;;;8.18;6.10;;;17.60;98.80;;;;;;5065103;28;20111;-69
2022/08/23 04:15:34;;;;;;;7.43;6.53;;;17.60;99.10;;;;;;5069028;28;20082;-70
2022/08/23 04:18:00;;;;;;;6.97;6.30;;;18.40;99.20;;;;;;5063899;28;20413;-70
2022/08/23 04:20:26;;;;;;;7.38;6.68;;;17.30;99.00;;;;;;5048903;28;20028;-70
2022/08/23 04:22:53;;;;;;;10.93;6.10;;;17.40;99.20;;;;;;5049040;28;20029;-70
2022/08/23 04:25:19;;;;;;;7.05;6.40;;;17.30;99.10;;;;;;5048932;28;20060;-70
2022/08/23 04:27:45;;;;;;;8.00;6.70;;;17.60;99.10;;;;;;5048938;28;20036;-70
2022/08/23 04:30:11;;;;;;;7.85;6.22;;;17.60;99.00;;;;;;5048838;28;20033;-68
2022/08/23 04:32:37;;;;;;;10.57;6.28;;;17.60;99.10;;;;;;5048683;28;20075;-70
2022/08/23 04:35:03;;;;;;;7.20;6.15;;;17.60;99.10;;;;;;5048895;28;20029;-68
2022/08/23 04:37:28;;;;;;;7.72;6.50;;;17.50;99.10;;;;;;5051104;28;20037;-68
2022/08/23 04:42:38;;;;;;;;;;;17.70;98.50;;;;;;5052926;28;20043;-70
2022/08/23 04:45:04;;;;;;;10.93;7.25;;;17.70;99.60;;;;;;5050054;28;19909;-69
2022/08/23 04:47:29;;;;;;;9.73;8.35;;;17.70;98.80;;;;;;5051952;28;20061;-69
2022/08/23 04:49:55;;;;;;;12.23;9.00;;;17.70;98.90;;;;;;5052302;28;20516;-69
2022/08/23 04:52:21;;;;;;;11.20;9.32;;;17.90;99.00;;;;;;5052111;28;20409;-69
2022/08/23 04:54:47;;;;;;;12.48;9.45;;;17.80;99.00;;;;;;5052340;28;20067;-69
2022/08/23 04:57:14;;;;;;;10.73;9.65;;;17.90;99.10;;;;;;5052202;28;20025;-69
2022/08/23 04:59:39;;;;;;;10.57;9.48;;;17.90;99.00;;;;;;5051754;28;20067;-69
2022/08/23 05:02:05;;;;;;;11.32;9.55;;;18.00;99.30;;;;;;5052121;28;20036;-69
2022/08/23 05:04:30;;;;;;;10.90;9.88;;;18.00;99.10;;;;;;5051852;28;20030;-68
2022/08/23 05:06:56;;;;;;;17.15;11.45;;;18.10;99.20;;;;;;5051971;28;20064;-69
2022/08/23 05:09:23;;;;;;;12.05;9.90;;;18.00;99.20;;;;;;5051668;28;20029;-69
2022/08/23 05:11:49;;;;;;;14.52;10.65;;;18.10;99.20;;;;;;5057459;28;20017;-69
2022/08/23 05:14:15;;;;;;;12.65;10.45;;;18.10;99.20;;;;;;5071137;28;20035;-68
2022/08/23 05:16:40;;;;;;;12.00;10.88;;;18.20;99.20;;;;;;5071629;28;20024;-69
2022/08/23 05:19:06;;;;;;;12.80;11.30;;;18.30;99.20;;;;;;5071799;28;20534;-68
2022/08/23 05:21:32;;;;;;;13.73;10.40;;;18.10;99.00;;;;;;5071456;28;20385;-68
2022/08/23 05:23:59;;;;;;;15.50;10.75;;;18.30;99.00;;;;;;5071961;28;20500;-69
2022/08/23 05:26:25;;;;;;;10.75;9.65;;;18.40;99.20;;;;;;5071556;28;20103;-69
2022/08/23 05:28:50;;;;;;;11.73;10.60;;;18.50;98.90;;;;;;5069960;28;20530;-68
2022/08/23 05:31:22;;;;;;;13.63;10.52;;;18.60;98.80;;;;;;5061372;28;20032;-70
2022/08/23 05:33:48;;;;;;;13.82;11.73;;;18.70;98.90;;;;;;5055686;28;20458;-68
2022/08/23 05:36:15;;;;;;;12.20;11.07;;;18.80;98.50;;;;;;5049617;28;20128;-69
2022/08/23 05:38:42;;;;;;;17.10;12.43;;;18.90;98.50;;;;;;5051255;28;20065;-68
2022/08/23 05:41:08;;;;;;;11.82;10.63;;;18.90;98.50;;;;;;5050998;28;20036;-68
2022/08/23 05:43:34;;;;;;;13.85;12.45;;;18.90;98.50;;;;;;5049849;28;20036;-68
2022/08/23 05:46:15;;;;;;;12.57;10.98;;;18.90;98.50;;;;;;5055607;28;20474;-68
2022/08/23 05:48:45;;;;;;;17.30;11.85;;;19.00;98.90;;;;;;5050341;28;20027;-68
2022/08/23 05:51:11;;;;;;;14.30;10.93;;;19.00;98.40;;;;;;5050788;28;20130;-68
2022/08/23 05:53:37;;;;;;;16.48;13.07;;;19.30;98.10;;;;;;5050485;28;20478;-68
2022/08/23 05:56:21;;;;;;;14.85;13.35;;;19.40;98.20;;;;;;5043992;28;20025;-68
2022/08/23 05:58:48;;;;;;;13.55;11.68;;;19.60;97.60;;;;;;5048017;28;20021;-68
2022/08/23 06:01:15;;;;;;;14.82;11.32;;;19.70;97.80;;;;;;5049874;28;20057;-69
2022/08/23 06:03:41;;;;;;;14.25;12.80;;;20.80;97.80;;;;;;5051918;28;20039;-68
2022/08/23 06:06:08;;;;;;;14.13;12.70;;;19.80;97.50;;;;;;5051009;28;20051;-68
2022/08/23 06:08:34;;;;;;;14.00;11.80;;;19.90;97.40;;;;;;5056605;28;20533;-68
2022/08/23 06:11:09;;;;;;;14.32;12.98;;;19.90;97.30;;;;;;5048808;28;20120;-68
2022/08/23 06:13:42;;;;;;;13.13;12.00;;;20.20;96.80;;;;;;5069496;28;20474;-68
2022/08/23 06:16:09;;;;;;;14.20;12.25;;;20.20;96.60;;;;;;5054403;28;20120;-68
2022/08/23 06:18:35;;;;;;;14.35;12.75;;;20.30;96.90;;;;;;5053667;28;20045;-69
2022/08/23 06:21:12;;;;;;;15.70;13.07;;;20.40;96.80;;;;;;5050026;28;20434;-69
2022/08/23 06:23:38;;;;;;;13.50;12.30;;;20.40;96.80;;;;;;5053701;28;20460;-68
2022/08/23 06:26:15;;;;;;;14.35;12.85;;;20.60;96.60;;;;;;5050900;28;20053;-68
2022/08/23 06:28:43;;;;;;;13.88;12.13;;;20.50;96.80;;;;;;5049479;28;20499;-68
2022/08/23 06:31:09;;;;;;;15.50;12.63;;;20.70;96.50;;;;;;5049634;28;20116;-68
2022/08/23 06:33:36;;;;;;;13.75;12.45;;;20.70;96.40;;;;;;5049786;28;20098;-69
2022/08/23 06:36:08;;;;;;;12.90;11.55;;;20.70;96.40;;;;;;5054242;28;20017;-68
2022/08/23 06:38:35;;;;;;;15.82;12.38;;;20.90;96.70;;;;;;5049361;28;20029;-68
2022/08/23 06:41:02;;;;;;;15.45;12.60;;;20.90;96.30;;;;;;5048932;28;20437;-68
2022/08/23 06:43:28;;;;;;;15.50;11.48;;;21.00;96.30;;;;;;5047965;28;20071;-68
2022/08/23 06:45:54;;;;;;;12.55;11.38;;;21.00;96.10;;;;;;5050106;28;20481;-69
2022/08/23 06:48:20;;;;;;;12.55;11.23;;;21.70;96.20;;;;;;5049261;28;20366;-68
2022/08/23 06:50:45;;;;;;;14.75;12.55;;;21.30;95.90;;;;;;5049542;28;20033;-68
2022/08/23 06:53:11;;;;;;;13.07;11.77;;;21.50;95.80;;;;;;5049067;28;20381;-68
2022/08/23 06:55:37;;;;;;;16.90;11.25;;;21.30;95.60;;;;;;5054358;28;20560;-68
2022/08/23 06:58:03;;;;;;;12.52;11.45;;;21.60;95.40;;;;;;5048355;28;20035;-68
2022/08/23 07:00:28;;;;;;;13.85;11.10;;;21.60;95.10;;;;;;5047697;28;20048;-69
2022/08/23 07:02:54;;;;;;;11.82;10.63;;;21.80;94.90;;;;;;5050604;28;20447;-68
2022/08/23 07:05:20;;;;;;;16.00;10.98;;;21.90;94.50;;;;;;5049635;28;20043;-69
2022/08/23 07:07:46;;;;;;;15.75;10.57;;;22.10;94.20;;;;;;5045852;28;20029;-68
2022/08/23 07:10:14;;;;;;;12.55;10.75;;;22.10;94.00;;;;;;5048395;28;20129;-68
2022/08/23 07:12:41;;;;;;;14.35;11.57;;;22.20;94.00;;;;;;5053171;28;20024;-68
2022/08/23 07:15:08;;;;;;;15.50;12.57;;;22.20;93.80;;;;;;5048505;28;20103;-68
2022/08/23 07:17:33;;;;;;;13.32;11.65;;;22.20;93.70;;;;;;5048096;28;20488;-68
2022/08/23 07:19:59;;;;;;;12.68;11.20;;;22.10;93.80;;;;;;5049581;28;20036;-68
2022/08/23 07:22:24;;;;;;;14.98;11.32;;;22.10;93.90;;;;;;5046035;28;20363;-69
2022/08/23 07:24:50;;;;;;;13.10;11.20;;;22.00;93.90;;;;;;5045699;28;20357;-68
2022/08/23 07:27:16;;;;;;;14.27;11.02;;;22.20;94.00;;;;;;5046133;28;20029;-68
2022/08/23 07:29:41;;;;;;;16.48;12.07;;;22.10;94.00;;;;;;5042965;28;20041;-68
2022/08/23 07:32:08;;;;;;;15.55;12.60;;;22.10;94.00;;;;;;5047549;28;20474;-68
2022/08/23 07:34:34;;;;;;;16.40;13.98;;;22.20;94.10;;;;;;5045731;28;20528;-68
2022/08/23 07:37:00;;;;;;;15.30;13.52;;;22.20;93.90;;;;;;5046500;28;20036;-68
2022/08/23 07:39:26;;;;;;;12.70;11.43;;;23.50;94.10;;;;;;5047464;28;20070;-68
2022/08/23 07:41:51;;;;;;;16.23;12.43;;;22.30;93.80;;;;;;5048861;28;20028;-68
2022/08/23 07:44:17;;;;;;;14.38;12.60;;;22.30;93.80;;;;;;5046711;28;20021;-68
2022/08/23 07:46:44;;;;;;;13.10;11.65;;;22.40;93.70;;;;;;5048933;28;20523;-69
2022/08/23 07:49:11;;;;;;;15.95;12.20;;;22.70;93.60;;;;;;5048537;28;20021;-68
2022/08/23 07:51:40;;;;;;;13.55;12.15;;;22.50;93.60;;;;;;5047056;28;20440;-68
2022/08/23 07:54:09;;;;;;;14.10;11.60;;;22.70;93.40;;;;;;5046126;28;20100;-68
2022/08/23 07:56:35;;;;;;;14.93;11.80;;;22.70;93.40;;;;;;5048284;28;20063;-69
2022/08/23 07:59:01;;;;;;;15.52;12.50;;;23.70;93.20;;;;;;5052216;28;20025;-68
2022/08/23 08:01:28;;;;;;;12.68;11.38;;;22.80;92.80;;;;;;5048136;28;20041;-68
2022/08/23 08:03:56;;;;;;;12.50;11.30;;;22.80;92.80;;;;;;5049458;28;20584;-68
2022/08/23 08:06:45;;;;;;;17.23;10.88;;;22.60;92.70;;;;;;5044205;28;20476;-68
2022/08/23 08:09:11;;;;;;;16.67;11.52;;;23.00;91.90;;;;;;5045835;28;20041;-68
2022/08/23 08:11:41;;;;;;;13.35;10.60;;;23.00;92.40;;;;;;5054893;28;20028;-69
2022/08/23 08:14:08;;;;;;;12.35;11.07;;;23.20;92.50;;;;;;5051524;28;20028;-68
2022/08/23 08:16:37;;;;;;;14.65;9.82;;;23.20;92.20;;;;;;5050548;28;20100;-68
2022/08/23 08:19:06;;;;;;;12.88;9.98;;;23.30;92.10;;;;;;5052215;28;20386;-69
2022/08/23 08:21:32;;;;;;;10.75;9.02;;;23.40;92.00;;;;;;5050685;28;20041;-68
2022/08/23 08:23:57;;;;;;;13.32;8.27;;;23.50;91.60;;;;;;5050359;28;20378;-68
2022/08/23 08:26:23;;;;;;;10.13;8.30;;;24.80;91.60;;;;;;5050552;28;20788;-70
2022/08/23 08:28:49;;;;;;;12.48;9.30;;;23.50;91.10;;;;;;5049550;28;20098;-69
2022/08/23 08:31:15;;;;;;;12.30;8.85;;;23.50;91.00;;;;;;5055436;28;20028;-69
2022/08/23 08:33:41;;;;;;;12.63;10.27;;;23.70;90.90;;;;;;5050684;28;20572;-69
2022/08/23 08:36:07;;;;;;;13.35;9.25;;;23.90;90.90;;;;;;5050029;28;20032;-69
2022/08/23 08:38:36;;;;;;;10.45;8.90;;;23.80;90.90;;;;;;5050051;28;20017;-69
2022/08/23 08:41:12;;;;;;;11.93;10.60;;;23.90;90.80;;;;;;5047627;28;20036;-68
2022/08/23 08:44:02;;;;;;;11.55;9.00;;;24.00;90.70;;;;;;5046899;28;20017;-69
2022/08/23 08:46:46;;;;;;;8.68;7.72;;;23.80;90.60;;;;;;5051496;28;20025;-69
2022/08/23 08:49:43;;;;;;;12.90;9.07;;;24.10;89.60;;;;;;5055876;28;20032;-68
2022/08/23 08:52:17;;;;;;;12.73;8.57;;;24.10;89.00;;;;;;5036530;28;20041;-68
2022/08/23 08:54:46;;;;;;;14.88;10.23;;;24.20;87.70;;;;;;5057063;28;20050;-68
2022/08/23 08:57:14;;;;;;;13.00;9.85;;;24.10;89.20;;;;;;5053128;28;20025;-69
2022/08/23 09:00:03;;;;;;;10.35;9.50;;;24.20;88.80;;;;;;5050485;28;20037;-68
2022/08/23 09:02:32;;;;;;;14.75;9.23;;;24.30;87.40;;;;;;5047527;28;20541;-69
2022/08/23 09:05:01;;;;;;;12.38;8.40;;;24.40;88.50;;;;;;5051356;28;20024;-69
2022/08/23 09:07:37;;;;;;;12.82;9.48;;;24.40;88.20;;;;;;5050964;28;20029;-68
2022/08/23 09:10:18;;;;;;;10.98;9.50;;;24.40;88.00;;;;;;5046171;28;20025;-69
2022/08/23 09:12:52;;;;;;;8.70;7.90;;;24.60;88.00;;;;;;5050510;28;20025;-68
2022/08/23 09:15:35;;;;;;;11.20;8.57;;;24.60;87.70;;;;;;5050670;28;20481;-68
2022/08/23 09:18:10;;;;;;;10.70;6.47;;;24.70;87.60;;;;;;5045653;28;20029;-68
2022/08/23 09:20:37;;;;;;;10.07;6.60;;;24.70;87.20;;;;;;5052095;28;20089;-68
2022/08/23 09:23:33;;;;;;;11.35;7.50;;;24.80;86.30;;;;;;5046725;28;20025;-68
2022/08/23 09:26:01;;;;;;;8.52;5.78;;;25.00;84.50;;;;;;5056961;28;20013;-68
2022/08/23 09:28:30;;;;;;;8.75;6.20;;;25.90;85.90;;;;;;5050318;28;20476;-68
2022/08/23 09:30:58;;;;;;;6.97;6.22;;;25.10;85.10;;;;;;5055532;28;20055;-69
2022/08/23 09:33:35;;;;;;;9.30;5.80;;;25.10;84.60;;;;;;5050680;28;20021;-68
2022/08/23 09:36:17;;;;;;;11.25;8.32;;;25.10;84.40;;;;;;5059131;28;20043;-68
2022/08/23 09:38:50;;;;;;;8.15;6.97;;;25.30;82.50;;;;;;5065688;28;20493;-68
2022/08/23 09:41:19;;;;;;;;;;;25.40;84.20;;;;;;5058733;28;20051;-69
2022/08/23 09:43:49;;;;;;;10.23;6.57;;;25.20;84.70;;;;;;5065103;28;19960;-68
2022/08/23 09:46:25;;;;;;;10.40;7.75;;;25.40;83.80;;;;;;5051148;28;20017;-69
2022/08/23 09:48:54;;;;;;;12.85;7.97;;;25.50;84.30;;;;;;5050956;28;20025;-69
2022/08/23 09:51:28;;;;;;;8.27;6.47;;;25.80;83.50;;;;;;5060939;28;20063;-69
2022/08/23 09:54:16;;;;;;;9.30;8.40;;;25.50;83.80;;;;;;5059590;28;20029;-68
2022/08/23 09:56:48;;;;;;;11.68;7.93;;;25.80;81.90;;;;;;5070223;28;20033;-69
2022/08/23 09:59:42;;;;;;;10.57;5.27;;;27.10;83.70;;;;;;5054966;28;20110;-69
2022/08/23 10:02:24;;;;;;;7.82;4.78;;;25.90;81.40;;;;;;5068929;28;20162;-69
2022/08/23 10:04:58;;;;;;;7.25;4.53;;;25.80;82.10;;;;;;5059393;28;20548;-69
2022/08/23 10:07:38;;;;;;;8.07;4.38;;;26.10;81.70;;;;;;5050481;28;20032;-69
2022/08/23 10:10:22;;;;;;;10.02;5.00;;;26.20;78.50;;;;;;5051357;28;20040;-69
2022/08/23 10:12:49;;;;;;;9.05;4.25;;;26.30;80.70;;;;;;5063231;28;20466;-69
2022/08/23 10:15:15;;;;;;;14.55;6.43;;;26.40;80.30;;;;;;5063592;28;20025;-69
2022/08/23 10:17:51;;;;;;;8.57;3.30;;;26.50;79.90;;;;;;5057610;28;20112;-69
2022/08/23 10:20:22;;;;;;;10.23;3.17;;;26.50;79.20;;;;;;5062065;28;20021;-70
2022/08/23 10:22:57;;;;;;;6.47;4.47;;;26.40;76.00;;;;;;5048408;28;20044;-69
2022/08/23 10:25:36;;;;;;;8.02;4.93;;;26.60;78.00;;;;;;5049448;28;20021;-69
2022/08/23 10:31:36;;;;;;;8.23;3.22;;;27.50;78.20;;;;;;5007709;28;20450;-71
2022/08/23 10:34:20;;;;;;;5.43;3.15;;;26.70;75.90;;;;;;5006361;28;20493;-70
2022/08/23 10:37:19;;;;;;;5.10;2.92;;;26.80;77.10;;;;;;5008227;28;20026;-70
2022/08/23 10:40:07;;;;;;;6.00;3.08;;;26.80;74.90;;;;;;4999226;28;20033;-70
2022/08/23 10:43:12;;;;;;;8.60;4.30;;;26.90;74.90;;;;;;5008190;28;20410;-70
2022/08/23 10:45:40;;;;;;;4.82;3.28;;;26.80;76.20;;;;;;5007608;28;20026;-71
2022/08/23 10:48:29;;;;;;;4.85;2.67;;;26.90;75.50;;;;;;4989166;28;20029;-71
2022/08/23 10:51:15;;;;;;;9.43;4.05;;;26.90;73.90;;;;;;5007572;28;20446;-73
2022/08/23 10:53:48;;;;;;;6.40;3.40;;;27.00;73.70;;;;;;5008718;28;20026;-70
2022/08/23 10:56:18;;;;;;;7.10;2.92;;;26.90;75.30;;;;;;5007470;28;20077;-69
2022/08/23 10:58:51;;;;;;;4.57;2.10;;;27.10;74.50;;;;;;5005926;28;20037;-68
2022/08/23 11:01:24;;;;;;;5.68;1.98;;;27.00;72.60;;;;;;4990552;28;20482;-69
2022/08/23 11:03:58;;;;;;;;;;;27.00;72.00;;;;;;4986903;28;20070;-70
2022/08/23 11:06:34;;;;;;;7.47;2.30;;;27.00;74.50;;;;;;4989421;28;19972;-71
2022/08/23 11:09:18;;;;;;;5.47;2.28;;;27.20;73.90;;;;;;5009973;28;20080;-68
2022/08/23 11:12:01;;;;;;;6.65;2.28;;;27.00;73.70;;;;;;5013151;28;20033;-70
2022/08/23 11:14:32;;;;;;;;;;;27.10;73.20;;;;;;5003163;28;20065;-70
2022/08/23 11:17:01;;;;;;;4.72;2.78;;;27.10;74.00;;;;;;5009697;28;20278;-70
2022/08/23 11:19:52;;;;;;;7.38;2.78;;;27.20;72.80;;;;;;5009199;28;20018;-70
2022/08/23 11:22:19;;;;;;;9.13;2.80;;;27.30;71.60;;;;;;5007124;28;20042;-69
2022/08/23 11:24:56;;;;;;;10.07;3.22;;;27.50;71.60;;;;;;5010078;28;20383;-69
2022/08/23 11:27:31;;;;;;;8.02;3.50;;;27.40;71.80;;;;;;5007314;28;20048;-70
2022/08/23 11:29:57;;;;;;;5.30;2.92;;;27.50;70.00;;;;;;5009789;28;20014;-70
2022/08/23 11:32:34;;;;;;;4.57;2.47;;;28.20;71.50;;;;;;5006422;28;20117;-70
2022/08/23 11:35:31;;;;;;;4.65;1.98;;;27.60;71.70;;;;;;5009758;28;20032;-70
2022/08/23 11:38:01;;;;;;;8.60;2.67;;;27.70;70.30;;;;;;4997376;28;20022;-70
2022/08/23 11:40:40;;;;;;;6.78;3.05;;;27.60;71.60;;;;;;5013230;28;20033;-70
2022/08/23 11:43:11;;;;;;;7.28;2.78;;;27.60;71.70;;;;;;4999606;28;20097;-70
2022/08/23 11:45:46;;;;;;;9.50;2.97;;;27.60;71.90;;;;;;5021736;28;20459;-70
2022/08/23 11:48:32;;;;;;;6.03;2.63;;;27.70;72.20;;;;;;5020748;28;20040;-70
2022/08/23 11:51:25;;;;;;;5.07;2.97;;;27.60;69.80;;;;;;5017396;28;20049;-70
2022/08/23 11:54:10;;;;;;;4.90;2.25;;;27.70;69.90;;;;;;5011019;28;20058;-70
2022/08/23 11:57:00;;;;;;;10.00;4.38;;;27.60;71.70;;;;;;5013092;28;20036;-70
2022/08/23 11:59:45;;;;;;;4.78;3.83;;;27.60;70.00;;;;;;5021345;28;20049;-70
2022/08/23 12:02:39;;;;;;;7.22;3.00;;;27.70;70.30;;;;;;5054793;28;20040;-70
2022/08/23 12:05:19;;;;;;;7.75;4.85;;;27.90;70.70;;;;;;5051338;28;20037;-70
2022/08/23 12:07:48;;;;;;;6.05;3.22;;;27.90;69.90;;;;;;5052791;28;20419;-70
2022/08/23 12:10:42;;;;;;;4.72;3.20;;;28.10;71.40;;;;;;5052037;28;20040;-70
2022/08/23 12:13:20;;;;;;;7.28;3.10;;;28.20;70.80;;;;;;5067702;28;20477;-70
2022/08/23 12:16:10;;;;;;;5.88;2.72;;;28.10;71.30;;;;;;5068331;28;20389;-70
2022/08/23 12:18:42;;;;;;;7.88;3.78;;;28.20;70.10;;;;;;5062025;28;20033;-70
2022/08/23 12:21:15;;;;;;;4.82;2.80;;;28.10;70.60;;;;;;5072578;28;20137;-70
2022/08/23 12:23:50;;;;;;;5.75;2.95;;;28.10;70.40;;;;;;5071423;28;20017;-70
2022/08/23 12:26:27;;;;;;;4.70;2.50;;;28.20;68.60;;;;;;5071701;28;20024;-70
2022/08/23 12:29:02;;;;;;;8.18;2.97;;;28.90;70.70;;;;;;5071885;28;20020;-70
2022/08/23 12:31:50;;;;;;;7.93;2.58;;;28.60;70.20;;;;;;5072279;28;20024;-70
2022/08/23 12:34:21;;;;;;;5.38;2.45;;;29.00;68.20;;;;;;5063472;28;20119;-70
2022/08/23 12:37:03;;;;;;;3.10;2.22;;;28.80;68.50;;;;;;5072387;28;20427;-70
2022/08/23 12:39:35;;;;;;;6.37;2.27;;;29.00;67.20;;;;;;5071045;28;20067;-70
2022/08/23 12:42:14;;;;;;;6.63;1.88;;;28.90;68.90;;;;;;5071469;28;20028;-70
2022/08/23 12:44:42;;;;;;;7.25;1.98;;;28.90;68.80;;;;;;5071834;28;20031;-70
2022/08/23 12:47:19;;;;;;;3.88;1.70;;;29.00;67.90;;;;;;5067279;28;20060;-70
2022/08/23 12:50:11;;;;;;;3.75;1.75;;;29.10;66.30;;;;;;5066333;28;20123;-70
2022/08/23 12:52:37;;;;;;;3.97;1.75;;;29.20;66.70;;;;;;5051203;28;20063;-70
2022/08/23 12:55:13;;;;;;;3.20;1.98;;;29.00;67.40;;;;;;5052003;28;20100;-70
2022/08/23 12:57:42;;;;;;;3.88;2.17;;;29.20;68.10;;;;;;5054723;28;20094;-71
2022/08/23 13:00:36;;;;;;;4.75;2.42;;;29.00;67.40;;;;;;5067052;28;20052;-70
2022/08/23 13:03:12;;;;;;;5.32;1.80;;;29.00;67.30;;;;;;5056533;28;20041;-70
2022/08/23 13:05:42;;;;;;;4.13;1.80;;;29.10;67.20;;;;;;5063322;28;20023;-70
2022/08/23 13:08:12;;;;;;;3.67;2.22;;;29.00;67.30;;;;;;5051444;28;20120;-70
2022/08/23 13:10:41;;;;;;;8.27;2.03;;;29.00;67.50;;;;;;5054773;28;20056;-70
2022/08/23 13:13:13;;;;;;;2.97;1.52;;;29.10;67.40;;;;;;5064420;28;20124;-70